sensor_id;sensor_type;location;lat;lon;timestamp;temperature;humidity
13310;DHT22;6723;48.256;16.402;2023-02-03T00:01:34;3.90;99.90
13310;DHT22;6723;48.256;16.402;2023-02-03T00:03:59;3.90;99.90
13310;DHT22;6723;48.256;16.402;2023-02-03T00:06:25;4.00;99.90
13310;DHT22;6723;48.256;16.402;2023-02-03T00:08:53;3.90;99.90
13310;DHT22;6723;48.256;16.402;2023-02-03T00:11:21;3.90;99.90
13310;DHT22;6723;48.256;16.402;2023-02-03T00:13:47;3.90;99.90
13310;DHT22;6723;48.256;16.402;2023-02-03T00:16:13;3.90;99.90
13310;DHT22;6723;48.256;16.402;2023-02-03T00:18:38;3.80;99.90
13310;DHT22;6723;48.256;16.402;2023-02-03T00:21:05;3.80;99.90
13310;DHT22;6723;48.256;16.402;2023-02-03T00:23:31;3.80;99.90
13310;DHT22;6723;48.256;16.402;2023-02-03T00:26:08;3.80;99.90
13310;DHT22;6723;48.256;16.402;2023-02-03T00:28:34;3.80;99.90
13310;DHT22;6723;48.256;16.402;2023-02-03T00:31:00;3.80;99.90
13310;DHT22;6723;48.256;16.402;2023-02-03T00:33:25;3.80;99.90
13310;DHT22;6723;48.256;16.402;2023-02-03T00:35:51;3.80;99.90
13310;DHT22;6723;48.256;16.402;2023-02-03T00:38:17;3.80;99.90
13310;DHT22;6723;48.256;16.402;2023-02-03T00:40:51;3.80;99.90
13310;DHT22;6723;48.256;16.402;2023-02-03T00:43:18;3.80;99.90
13310;DHT22;6723;48.256;16.402;2023-02-03T00:45:44;3.80;99.90
13310;DHT22;6723;48.256;16.402;2023-02-03T00:48:10;3.70;99.90
13310;DHT22;6723;48.256;16.402;2023-02-03T00:50:36;3.80;99.90
13310;DHT22;6723;48.256;16.402;2023-02-03T00:53:02;3.80;99.90
13310;DHT22;6723;48.256;16.402;2023-02-03T00:55:28;3.80;99.90
13310;DHT22;6723;48.256;16.402;2023-02-03T00:57:53;3.80;99.90
13310;DHT22;6723;48.256;16.402;2023-02-03T01:00:20;3.80;99.90
13310;DHT22;6723;48.256;16.402;2023-02-03T01:02:46;3.70;99.90
13310;DHT22;6723;48.256;16.402;2023-02-03T01:05:12;3.80;99.90
13310;DHT22;6723;48.256;16.402;2023-02-03T01:07:38;3.70;99.90
13310;DHT22;6723;48.256;16.402;2023-02-03T01:10:05;3.70;99.90
13310;DHT22;6723;48.256;16.402;2023-02-03T01:12:31;3.70;99.90
13310;DHT22;6723;48.256;16.402;2023-02-03T01:14:58;3.60;99.90
13310;DHT22;6723;48.256;16.402;2023-02-03T01:17:24;3.70;99.90
13310;DHT22;6723;48.256;16.402;2023-02-03T01:19:51;3.70;99.90
13310;DHT22;6723;48.256;16.402;2023-02-03T01:22:16;3.60;99.90
13310;DHT22;6723;48.256;16.402;2023-02-03T01:24:42;3.50;99.90
13310;DHT22;6723;48.256;16.402;2023-02-03T01:27:08;3.50;99.90
13310;DHT22;6723;48.256;16.402;2023-02-03T01:29:35;3.50;99.90
13310;DHT22;6723;48.256;16.402;2023-02-03T01:32:01;3.50;99.90
13310;DHT22;6723;48.256;16.402;2023-02-03T01:34:27;3.40;99.90
13310;DHT22;6723;48.256;16.402;2023-02-03T01:36:52;3.40;99.90
13310;DHT22;6723;48.256;16.402;2023-02-03T01:39:18;3.40;99.90
13310;DHT22;6723;48.256;16.402;2023-02-03T01:41:44;3.40;99.90
13310;DHT22;6723;48.256;16.402;2023-02-03T01:53:07;3.40;99.90
13310;DHT22;6723;48.256;16.402;2023-02-03T01:55:43;3.50;99.90
13310;DHT22;6723;48.256;16.402;2023-02-03T01:58:17;3.60;99.90
13310;DHT22;6723;48.256;16.402;2023-02-03T02:00:47;3.50;99.90
13310;DHT22;6723;48.256;16.402;2023-02-03T02:03:14;3.50;99.90
13310;DHT22;6723;48.256;16.402;2023-02-03T02:05:51;3.60;99.90
13310;DHT22;6723;48.256;16.402;2023-02-03T02:08:19;3.60;99.90
13310;DHT22;6723;48.256;16.402;2023-02-03T02:10:49;3.50;99.90
13310;DHT22;6723;48.256;16.402;2023-02-03T02:13:16;3.50;99.90
13310;DHT22;6723;48.256;16.402;2023-02-03T02:18:39;3.50;99.90
13310;DHT22;6723;48.256;16.402;2023-02-03T02:35:41;3.50;99.90
13310;DHT22;6723;48.256;16.402;2023-02-03T02:40:59;3.50;99.90
13310;DHT22;6723;48.256;16.402;2023-02-03T02:43:47;3.50;99.90
13310;DHT22;6723;48.256;16.402;2023-02-03T02:46:26;3.60;99.90
13310;DHT22;6723;48.256;16.402;2023-02-03T02:49:06;3.60;99.90
13310;DHT22;6723;48.256;16.402;2023-02-03T02:51:35;3.60;99.90
13310;DHT22;6723;48.256;16.402;2023-02-03T02:54:05;3.50;99.90
13310;DHT22;6723;48.256;16.402;2023-02-03T02:56:33;3.50;99.90
13310;DHT22;6723;48.256;16.402;2023-02-03T02:59:02;3.50;99.90
13310;DHT22;6723;48.256;16.402;2023-02-03T03:01:29;3.50;99.90
13310;DHT22;6723;48.256;16.402;2023-02-03T03:03:57;3.50;99.90
13310;DHT22;6723;48.256;16.402;2023-02-03T03:06:59;3.40;99.90
13310;DHT22;6723;48.256;16.402;2023-02-03T03:12:17;3.30;99.90
13310;DHT22;6723;48.256;16.402;2023-02-03T03:14:58;3.30;99.90
13310;DHT22;6723;48.256;16.402;2023-02-03T03:17:33;3.20;99.90
13310;DHT22;6723;48.256;16.402;2023-02-03T03:20:06;3.10;99.90
13310;DHT22;6723;48.256;16.402;2023-02-03T03:22:37;3.10;99.90
13310;DHT22;6723;48.256;16.402;2023-02-03T03:25:13;3.10;99.90
13310;DHT22;6723;48.256;16.402;2023-02-03T03:27:48;3.10;99.90
13310;DHT22;6723;48.256;16.402;2023-02-03T03:30:21;3.10;99.90
13310;DHT22;6723;48.256;16.402;2023-02-03T03:32:48;3.10;99.90
13310;DHT22;6723;48.256;16.402;2023-02-03T03:35:15;3.10;99.90
13310;DHT22;6723;48.256;16.402;2023-02-03T03:38:13;3.10;99.90
13310;DHT22;6723;48.256;16.402;2023-02-03T03:40:46;3.10;99.90
13310;DHT22;6723;48.256;16.402;2023-02-03T03:43:18;3.20;99.90
13310;DHT22;6723;48.256;16.402;2023-02-03T03:45:56;3.20;99.90
13310;DHT22;6723;48.256;16.402;2023-02-03T03:48:44;3.30;99.90
13310;DHT22;6723;48.256;16.402;2023-02-03T03:51:18;3.30;99.90
13310;DHT22;6723;48.256;16.402;2023-02-03T03:53:48;3.40;99.90
13310;DHT22;6723;48.256;16.402;2023-02-03T03:56:20;3.40;99.90
13310;DHT22;6723;48.256;16.402;2023-02-03T03:58:47;3.40;99.90
13310;DHT22;6723;48.256;16.402;2023-02-03T04:01:15;3.40;99.90
13310;DHT22;6723;48.256;16.402;2023-02-03T04:03:47;3.40;99.90
13310;DHT22;6723;48.256;16.402;2023-02-03T04:06:15;3.40;99.90
13310;DHT22;6723;48.256;16.402;2023-02-03T04:08:40;3.40;99.90
13310;DHT22;6723;48.256;16.402;2023-02-03T04:11:07;3.30;99.90
13310;DHT22;6723;48.256;16.402;2023-02-03T04:13:32;3.40;99.90
13310;DHT22;6723;48.256;16.402;2023-02-03T04:15:58;3.30;99.90
13310;DHT22;6723;48.256;16.402;2023-02-03T04:18:24;3.30;99.90
13310;DHT22;6723;48.256;16.402;2023-02-03T04:20:50;3.40;99.90
13310;DHT22;6723;48.256;16.402;2023-02-03T04:23:16;3.40;99.90
13310;DHT22;6723;48.256;16.402;2023-02-03T04:25:41;3.40;99.90
13310;DHT22;6723;48.256;16.402;2023-02-03T04:28:08;3.40;99.90
13310;DHT22;6723;48.256;16.402;2023-02-03T04:30:34;3.40;99.90
13310;DHT22;6723;48.256;16.402;2023-02-03T04:32:59;3.40;99.90
13310;DHT22;6723;48.256;16.402;2023-02-03T04:35:25;3.40;99.90
13310;DHT22;6723;48.256;16.402;2023-02-03T04:37:51;3.40;99.90
13310;DHT22;6723;48.256;16.402;2023-02-03T04:40:17;3.40;99.90
13310;DHT22;6723;48.256;16.402;2023-02-03T04:42:43;3.50;99.90
13310;DHT22;6723;48.256;16.402;2023-02-03T04:45:10;3.50;99.90
13310;DHT22;6723;48.256;16.402;2023-02-03T04:47:37;3.40;99.90
13310;DHT22;6723;48.256;16.402;2023-02-03T04:50:04;3.40;99.90
13310;DHT22;6723;48.256;16.402;2023-02-03T04:52:30;3.40;99.90
13310;DHT22;6723;48.256;16.402;2023-02-03T04:54:55;3.40;99.90
13310;DHT22;6723;48.256;16.402;2023-02-03T04:57:27;3.40;99.90
13310;DHT22;6723;48.256;16.402;2023-02-03T04:59:53;3.40;99.90
13310;DHT22;6723;48.256;16.402;2023-02-03T05:02:19;3.40;99.90
13310;DHT22;6723;48.256;16.402;2023-02-03T05:04:44;3.50;99.90
13310;DHT22;6723;48.256;16.402;2023-02-03T05:07:10;3.40;99.90
13310;DHT22;6723;48.256;16.402;2023-02-03T05:09:36;3.40;99.90
13310;DHT22;6723;48.256;16.402;2023-02-03T05:12:02;3.50;99.90
13310;DHT22;6723;48.256;16.402;2023-02-03T05:14:27;3.50;99.90
13310;DHT22;6723;48.256;16.402;2023-02-03T05:16:53;3.50;99.90
13310;DHT22;6723;48.256;16.402;2023-02-03T05:19:19;3.50;99.90
13310;DHT22;6723;48.256;16.402;2023-02-03T05:21:44;3.50;99.90
13310;DHT22;6723;48.256;16.402;2023-02-03T05:24:10;3.60;99.90
13310;DHT22;6723;48.256;16.402;2023-02-03T05:26:36;3.60;99.90
13310;DHT22;6723;48.256;16.402;2023-02-03T05:29:02;3.60;99.90
13310;DHT22;6723;48.256;16.402;2023-02-03T05:31:28;3.60;99.90
13310;DHT22;6723;48.256;16.402;2023-02-03T05:33:54;3.70;99.90
13310;DHT22;6723;48.256;16.402;2023-02-03T05:36:20;3.70;99.90
13310;DHT22;6723;48.256;16.402;2023-02-03T05:38:46;3.80;99.90
13310;DHT22;6723;48.256;16.402;2023-02-03T05:41:12;3.80;99.90
13310;DHT22;6723;48.256;16.402;2023-02-03T05:43:56;3.90;99.90
13310;DHT22;6723;48.256;16.402;2023-02-03T05:46:23;3.80;99.90
13310;DHT22;6723;48.256;16.402;2023-02-03T05:48:48;3.90;99.90
13310;DHT22;6723;48.256;16.402;2023-02-03T05:51:14;3.80;99.90
13310;DHT22;6723;48.256;16.402;2023-02-03T05:53:40;3.90;99.90
13310;DHT22;6723;48.256;16.402;2023-02-03T05:56:06;3.90;99.90
13310;DHT22;6723;48.256;16.402;2023-02-03T05:58:32;3.90;99.90
13310;DHT22;6723;48.256;16.402;2023-02-03T06:00:58;3.90;99.90
13310;DHT22;6723;48.256;16.402;2023-02-03T06:03:24;3.80;99.90
13310;DHT22;6723;48.256;16.402;2023-02-03T06:05:50;3.90;99.90
13310;DHT22;6723;48.256;16.402;2023-02-03T06:08:15;3.90;99.90
13310;DHT22;6723;48.256;16.402;2023-02-03T06:10:41;3.80;99.90
13310;DHT22;6723;48.256;16.402;2023-02-03T06:13:12;3.90;99.90
13310;DHT22;6723;48.256;16.402;2023-02-03T06:15:38;3.90;99.90
13310;DHT22;6723;48.256;16.402;2023-02-03T06:18:04;3.90;99.90
13310;DHT22;6723;48.256;16.402;2023-02-03T06:20:31;3.90;99.90
13310;DHT22;6723;48.256;16.402;2023-02-03T06:22:57;3.90;99.90
13310;DHT22;6723;48.256;16.402;2023-02-03T06:25:22;3.90;99.90
13310;DHT22;6723;48.256;16.402;2023-02-03T06:27:52;3.90;99.90
13310;DHT22;6723;48.256;16.402;2023-02-03T06:30:18;3.90;99.90
13310;DHT22;6723;48.256;16.402;2023-02-03T06:32:45;3.90;99.90
13310;DHT22;6723;48.256;16.402;2023-02-03T06:35:10;4.00;99.90
13310;DHT22;6723;48.256;16.402;2023-02-03T06:37:39;4.00;99.90
13310;DHT22;6723;48.256;16.402;2023-02-03T06:40:06;4.00;99.90
13310;DHT22;6723;48.256;16.402;2023-02-03T06:42:37;4.00;99.90
13310;DHT22;6723;48.256;16.402;2023-02-03T06:45:03;4.00;99.90
13310;DHT22;6723;48.256;16.402;2023-02-03T06:47:29;4.00;99.90
13310;DHT22;6723;48.256;16.402;2023-02-03T06:49:55;4.00;99.90
13310;DHT22;6723;48.256;16.402;2023-02-03T06:52:21;4.10;99.90
13310;DHT22;6723;48.256;16.402;2023-02-03T06:54:46;4.10;99.90
13310;DHT22;6723;48.256;16.402;2023-02-03T06:57:12;4.20;99.90
13310;DHT22;6723;48.256;16.402;2023-02-03T06:59:38;4.30;99.90
13310;DHT22;6723;48.256;16.402;2023-02-03T07:02:04;4.30;99.90
13310;DHT22;6723;48.256;16.402;2023-02-03T07:04:30;4.30;99.90
13310;DHT22;6723;48.256;16.402;2023-02-03T07:06:56;4.30;99.90
13310;DHT22;6723;48.256;16.402;2023-02-03T07:09:22;4.40;99.90
13310;DHT22;6723;48.256;16.402;2023-02-03T07:11:48;4.50;99.90
13310;DHT22;6723;48.256;16.402;2023-02-03T07:14:13;4.50;99.90
13310;DHT22;6723;48.256;16.402;2023-02-03T07:16:42;4.50;99.90
13310;DHT22;6723;48.256;16.402;2023-02-03T07:19:08;4.50;99.90
13310;DHT22;6723;48.256;16.402;2023-02-03T07:21:33;4.60;99.90
13310;DHT22;6723;48.256;16.402;2023-02-03T07:23:59;4.60;99.90
13310;DHT22;6723;48.256;16.402;2023-02-03T07:26:26;4.60;99.90
13310;DHT22;6723;48.256;16.402;2023-02-03T07:28:52;4.60;99.90
13310;DHT22;6723;48.256;16.402;2023-02-03T07:31:19;4.60;99.90
13310;DHT22;6723;48.256;16.402;2023-02-03T07:33:44;4.60;99.90
13310;DHT22;6723;48.256;16.402;2023-02-03T07:36:10;4.70;99.90
13310;DHT22;6723;48.256;16.402;2023-02-03T07:38:36;4.70;99.90
13310;DHT22;6723;48.256;16.402;2023-02-03T07:41:03;4.80;99.90
13310;DHT22;6723;48.256;16.402;2023-02-03T07:43:30;4.80;99.90
13310;DHT22;6723;48.256;16.402;2023-02-03T07:45:56;4.80;99.90
13310;DHT22;6723;48.256;16.402;2023-02-03T07:48:22;4.90;99.90
13310;DHT22;6723;48.256;16.402;2023-02-03T07:51:09;4.90;99.90
13310;DHT22;6723;48.256;16.402;2023-02-03T07:53:48;5.10;99.90
13310;DHT22;6723;48.256;16.402;2023-02-03T07:56:14;5.20;99.90
13310;DHT22;6723;48.256;16.402;2023-02-03T07:58:40;5.30;99.90
13310;DHT22;6723;48.256;16.402;2023-02-03T08:01:14;5.30;99.90
13310;DHT22;6723;48.256;16.402;2023-02-03T08:03:40;5.30;99.90
13310;DHT22;6723;48.256;16.402;2023-02-03T08:06:07;5.30;99.90
13310;DHT22;6723;48.256;16.402;2023-02-03T08:08:33;5.40;99.90
13310;DHT22;6723;48.256;16.402;2023-02-03T08:10:59;5.40;99.90
13310;DHT22;6723;48.256;16.402;2023-02-03T08:13:24;5.50;99.90
13310;DHT22;6723;48.256;16.402;2023-02-03T08:15:50;5.50;99.90
13310;DHT22;6723;48.256;16.402;2023-02-03T08:18:21;5.50;99.90
13310;DHT22;6723;48.256;16.402;2023-02-03T08:20:47;5.60;99.90
13310;DHT22;6723;48.256;16.402;2023-02-03T08:23:13;5.70;99.90
13310;DHT22;6723;48.256;16.402;2023-02-03T08:25:52;5.70;99.90
13310;DHT22;6723;48.256;16.402;2023-02-03T08:28:18;5.80;99.90
13310;DHT22;6723;48.256;16.402;2023-02-03T08:30:44;5.90;99.90
13310;DHT22;6723;48.256;16.402;2023-02-03T08:33:09;5.90;99.90
13310;DHT22;6723;48.256;16.402;2023-02-03T08:35:35;5.90;99.90
13310;DHT22;6723;48.256;16.402;2023-02-03T08:38:01;5.90;99.90
13310;DHT22;6723;48.256;16.402;2023-02-03T08:40:27;6.00;99.90
13310;DHT22;6723;48.256;16.402;2023-02-03T08:42:53;6.00;99.90
13310;DHT22;6723;48.256;16.402;2023-02-03T08:45:19;6.00;99.90
13310;DHT22;6723;48.256;16.402;2023-02-03T08:47:44;6.00;99.90
13310;DHT22;6723;48.256;16.402;2023-02-03T08:50:11;6.10;99.90
13310;DHT22;6723;48.256;16.402;2023-02-03T08:52:42;6.10;99.90
13310;DHT22;6723;48.256;16.402;2023-02-03T08:55:07;6.20;99.90
13310;DHT22;6723;48.256;16.402;2023-02-03T08:57:34;6.30;99.90
13310;DHT22;6723;48.256;16.402;2023-02-03T09:00:01;6.30;99.90
13310;DHT22;6723;48.256;16.402;2023-02-03T09:02:30;6.30;99.90
13310;DHT22;6723;48.256;16.402;2023-02-03T09:04:56;6.40;99.90
13310;DHT22;6723;48.256;16.402;2023-02-03T09:07:22;6.40;99.90
13310;DHT22;6723;48.256;16.402;2023-02-03T09:09:48;6.40;99.90
13310;DHT22;6723;48.256;16.402;2023-02-03T09:12:14;6.50;99.90
13310;DHT22;6723;48.256;16.402;2023-02-03T09:14:39;6.40;99.90
13310;DHT22;6723;48.256;16.402;2023-02-03T09:17:06;6.50;99.90
13310;DHT22;6723;48.256;16.402;2023-02-03T09:19:35;6.60;99.90
13310;DHT22;6723;48.256;16.402;2023-02-03T09:22:00;6.60;99.90
13310;DHT22;6723;48.256;16.402;2023-02-03T09:24:26;6.70;99.90
13310;DHT22;6723;48.256;16.402;2023-02-03T09:26:54;6.70;99.90
13310;DHT22;6723;48.256;16.402;2023-02-03T09:29:25;6.70;99.90
13310;DHT22;6723;48.256;16.402;2023-02-03T09:32:17;6.70;99.90
13310;DHT22;6723;48.256;16.402;2023-02-03T09:34:42;6.80;99.90
13310;DHT22;6723;48.256;16.402;2023-02-03T09:37:08;6.80;99.90
13310;DHT22;6723;48.256;16.402;2023-02-03T09:39:36;6.90;99.90
13310;DHT22;6723;48.256;16.402;2023-02-03T09:45:20;7.00;99.90
13310;DHT22;6723;48.256;16.402;2023-02-03T09:47:49;7.00;99.90
13310;DHT22;6723;48.256;16.402;2023-02-03T09:50:21;7.00;99.90
13310;DHT22;6723;48.256;16.402;2023-02-03T09:52:49;7.10;99.90
13310;DHT22;6723;48.256;16.402;2023-02-03T09:58:16;7.20;99.90
13310;DHT22;6723;48.256;16.402;2023-02-03T10:00:59;7.30;99.90
13310;DHT22;6723;48.256;16.402;2023-02-03T10:06:27;7.40;99.90
13310;DHT22;6723;48.256;16.402;2023-02-03T10:14:45;7.60;99.90
13310;DHT22;6723;48.256;16.402;2023-02-03T10:17:24;7.80;99.90
13310;DHT22;6723;48.256;16.402;2023-02-03T10:22:40;8.00;99.90
13310;DHT22;6723;48.256;16.402;2023-02-03T10:27:40;8.00;99.90
13310;DHT22;6723;48.256;16.402;2023-02-03T10:30:25;8.00;99.90
13310;DHT22;6723;48.256;16.402;2023-02-03T10:33:15;8.10;99.90
13310;DHT22;6723;48.256;16.402;2023-02-03T10:35:54;7.90;99.90
13310;DHT22;6723;48.256;16.402;2023-02-03T10:38:43;7.90;99.90
13310;DHT22;6723;48.256;16.402;2023-02-03T10:41:18;8.00;99.90
13310;DHT22;6723;48.256;16.402;2023-02-03T10:43:45;7.90;99.90
13310;DHT22;6723;48.256;16.402;2023-02-03T10:46:15;7.90;99.90
13310;DHT22;6723;48.256;16.402;2023-02-03T10:48:41;7.90;99.90
13310;DHT22;6723;48.256;16.402;2023-02-03T10:51:27;7.90;99.90
13310;DHT22;6723;48.256;16.402;2023-02-03T10:53:56;7.90;99.90
13310;DHT22;6723;48.256;16.402;2023-02-03T10:56:34;8.00;99.90
13310;DHT22;6723;48.256;16.402;2023-02-03T10:59:00;7.90;99.90
13310;DHT22;6723;48.256;16.402;2023-02-03T11:01:27;7.90;99.90
13310;DHT22;6723;48.256;16.402;2023-02-03T11:04:04;7.90;99.90
13310;DHT22;6723;48.256;16.402;2023-02-03T11:06:31;7.90;99.90
13310;DHT22;6723;48.256;16.402;2023-02-03T11:08:57;7.90;99.90
13310;DHT22;6723;48.256;16.402;2023-02-03T11:11:27;7.90;99.90
13310;DHT22;6723;48.256;16.402;2023-02-03T11:16:28;7.90;99.90
13310;DHT22;6723;48.256;16.402;2023-02-03T11:24:58;7.80;99.90
13310;DHT22;6723;48.256;16.402;2023-02-03T11:27:29;7.70;99.90
13310;DHT22;6723;48.256;16.402;2023-02-03T11:32:35;7.60;99.90
13310;DHT22;6723;48.256;16.402;2023-02-03T11:37:34;7.40;99.90
13310;DHT22;6723;48.256;16.402;2023-02-03T11:42:37;7.10;99.90
13310;DHT22;6723;48.256;16.402;2023-02-03T11:48:25;7.20;99.90
13310;DHT22;6723;48.256;16.402;2023-02-03T11:50:59;7.20;99.90
13310;DHT22;6723;48.256;16.402;2023-02-03T12:07:32;7.10;99.90
13310;DHT22;6723;48.256;16.402;2023-02-03T12:15:52;6.80;99.90
13310;DHT22;6723;48.256;16.402;2023-02-03T12:21:11;6.60;99.90
13310;DHT22;6723;48.256;16.402;2023-02-03T12:29:15;6.70;99.90
13310;DHT22;6723;48.256;16.402;2023-02-03T12:32:05;6.80;99.90
13310;DHT22;6723;48.256;16.402;2023-02-03T12:34:43;6.80;99.90
13310;DHT22;6723;48.256;16.402;2023-02-03T12:37:27;6.80;99.90
13310;DHT22;6723;48.256;16.402;2023-02-03T12:39:58;7.00;99.90
13310;DHT22;6723;48.256;16.402;2023-02-03T12:42:50;7.00;99.90
13310;DHT22;6723;48.256;16.402;2023-02-03T12:45:21;7.10;99.90
13310;DHT22;6723;48.256;16.402;2023-02-03T12:47:57;7.10;99.90
13310;DHT22;6723;48.256;16.402;2023-02-03T12:50:40;7.10;99.90
13310;DHT22;6723;48.256;16.402;2023-02-03T12:53:16;7.00;99.90
13310;DHT22;6723;48.256;16.402;2023-02-03T12:58:36;7.00;99.90
13310;DHT22;6723;48.256;16.402;2023-02-03T13:03:40;7.00;99.90
13310;DHT22;6723;48.256;16.402;2023-02-03T13:06:25;7.00;99.90
13310;DHT22;6723;48.256;16.402;2023-02-03T13:12:11;7.10;99.90
13310;DHT22;6723;48.256;16.402;2023-02-03T13:14:44;7.10;99.90
13310;DHT22;6723;48.256;16.402;2023-02-03T13:17:22;7.10;99.90
13310;DHT22;6723;48.256;16.402;2023-02-03T13:19:53;7.10;99.90
13310;DHT22;6723;48.256;16.402;2023-02-03T13:22:22;7.10;99.90
13310;DHT22;6723;48.256;16.402;2023-02-03T13:44:49;6.80;99.90
13310;DHT22;6723;48.256;16.402;2023-02-03T13:47:23;6.80;99.90
13310;DHT22;6723;48.256;16.402;2023-02-03T13:50:04;6.80;99.90
13310;DHT22;6723;48.256;16.402;2023-02-03T13:53:19;6.90;99.90
13310;DHT22;6723;48.256;16.402;2023-02-03T13:55:55;6.90;99.90
13310;DHT22;6723;48.256;16.402;2023-02-03T13:58:32;6.80;99.90
13310;DHT22;6723;48.256;16.402;2023-02-03T14:01:02;6.60;99.90
13310;DHT22;6723;48.256;16.402;2023-02-03T14:05:58;6.10;99.90
13310;DHT22;6723;48.256;16.402;2023-02-03T14:21:51;5.90;99.90
13310;DHT22;6723;48.256;16.402;2023-02-03T14:24:20;5.90;99.90
13310;DHT22;6723;48.256;16.402;2023-02-03T14:27:19;5.90;99.90
13310;DHT22;6723;48.256;16.402;2023-02-03T14:29:45;5.80;99.90
13310;DHT22;6723;48.256;16.402;2023-02-03T14:32:57;5.90;99.90
13310;DHT22;6723;48.256;16.402;2023-02-03T14:35:40;6.00;99.90
13310;DHT22;6723;48.256;16.402;2023-02-03T14:38:10;6.00;99.90
13310;DHT22;6723;48.256;16.402;2023-02-03T14:43:40;5.90;99.90
13310;DHT22;6723;48.256;16.402;2023-02-03T14:57:25;6.00;99.90
13310;DHT22;6723;48.256;16.402;2023-02-03T15:05:57;6.10;99.90
13310;DHT22;6723;48.256;16.402;2023-02-03T15:10:56;5.90;99.90
13310;DHT22;6723;48.256;16.402;2023-02-03T15:13:29;5.90;99.90
13310;DHT22;6723;48.256;16.402;2023-02-03T15:15:57;5.90;99.90
13310;DHT22;6723;48.256;16.402;2023-02-03T15:18:30;5.90;99.90
13310;DHT22;6723;48.256;16.402;2023-02-03T15:20:56;6.00;99.90
13310;DHT22;6723;48.256;16.402;2023-02-03T15:23:28;6.00;99.90
13310;DHT22;6723;48.256;16.402;2023-02-03T15:25:59;6.00;99.90
13310;DHT22;6723;48.256;16.402;2023-02-03T15:28:29;6.00;99.90
13310;DHT22;6723;48.256;16.402;2023-02-03T15:34:04;6.10;99.90
13310;DHT22;6723;48.256;16.402;2023-02-03T15:36:46;6.10;99.90
13310;DHT22;6723;48.256;16.402;2023-02-03T15:39:21;6.20;99.90
13310;DHT22;6723;48.256;16.402;2023-02-03T15:41:50;6.20;99.90
13310;DHT22;6723;48.256;16.402;2023-02-03T15:44:34;6.30;99.90
13310;DHT22;6723;48.256;16.402;2023-02-03T15:47:13;6.40;99.90
13310;DHT22;6723;48.256;16.402;2023-02-03T15:49:41;6.40;99.90
13310;DHT22;6723;48.256;16.402;2023-02-03T15:52:16;6.40;99.90
13310;DHT22;6723;48.256;16.402;2023-02-03T15:54:46;6.50;99.90
13310;DHT22;6723;48.256;16.402;2023-02-03T15:57:29;6.50;99.90
13310;DHT22;6723;48.256;16.402;2023-02-03T16:00:07;6.50;99.90
13310;DHT22;6723;48.256;16.402;2023-02-03T16:02:42;6.50;99.90
13310;DHT22;6723;48.256;16.402;2023-02-03T16:05:28;6.50;99.90
13310;DHT22;6723;48.256;16.402;2023-02-03T16:07:54;6.50;99.90
13310;DHT22;6723;48.256;16.402;2023-02-03T16:10:29;6.50;99.90
13310;DHT22;6723;48.256;16.402;2023-02-03T16:13:27;6.50;99.90
13310;DHT22;6723;48.256;16.402;2023-02-03T16:16:04;6.50;99.90
13310;DHT22;6723;48.256;16.402;2023-02-03T16:18:34;6.50;99.90
13310;DHT22;6723;48.256;16.402;2023-02-03T16:21:04;6.50;99.90
13310;DHT22;6723;48.256;16.402;2023-02-03T16:23:30;6.50;99.90
13310;DHT22;6723;48.256;16.402;2023-02-03T16:26:15;6.50;99.90
13310;DHT22;6723;48.256;16.402;2023-02-03T16:28:42;6.50;99.90
13310;DHT22;6723;48.256;16.402;2023-02-03T16:31:27;6.50;99.90
13310;DHT22;6723;48.256;16.402;2023-02-03T16:36:57;6.60;99.90
13310;DHT22;6723;48.256;16.402;2023-02-03T16:39:43;6.60;99.90
13310;DHT22;6723;48.256;16.402;2023-02-03T16:42:38;6.70;99.90
13310;DHT22;6723;48.256;16.402;2023-02-03T16:45:23;6.70;99.90
13310;DHT22;6723;48.256;16.402;2023-02-03T16:48:11;6.70;99.90
13310;DHT22;6723;48.256;16.402;2023-02-03T16:51:03;6.70;99.90
13310;DHT22;6723;48.256;16.402;2023-02-03T16:53:31;6.80;99.90
13310;DHT22;6723;48.256;16.402;2023-02-03T16:56:02;6.80;99.90
13310;DHT22;6723;48.256;16.402;2023-02-03T16:58:29;6.90;99.90
13310;DHT22;6723;48.256;16.402;2023-02-03T17:00:58;6.90;99.90
13310;DHT22;6723;48.256;16.402;2023-02-03T17:03:26;6.90;99.90
13310;DHT22;6723;48.256;16.402;2023-02-03T17:05:52;7.00;99.90
13310;DHT22;6723;48.256;16.402;2023-02-03T17:08:21;6.90;99.90
13310;DHT22;6723;48.256;16.402;2023-02-03T17:10:53;7.00;99.90
13310;DHT22;6723;48.256;16.402;2023-02-03T17:13:20;7.00;99.90
13310;DHT22;6723;48.256;16.402;2023-02-03T17:15:50;7.00;99.90
13310;DHT22;6723;48.256;16.402;2023-02-03T17:18:19;7.00;99.90
13310;DHT22;6723;48.256;16.402;2023-02-03T17:20:45;7.00;99.90
13310;DHT22;6723;48.256;16.402;2023-02-03T17:23:12;7.00;99.90
13310;DHT22;6723;48.256;16.402;2023-02-03T17:25:44;7.00;99.90
13310;DHT22;6723;48.256;16.402;2023-02-03T17:28:11;6.80;99.90
13310;DHT22;6723;48.256;16.402;2023-02-03T17:30:40;6.80;99.90
13310;DHT22;6723;48.256;16.402;2023-02-03T17:33:07;6.90;99.90
13310;DHT22;6723;48.256;16.402;2023-02-03T17:35:42;6.90;99.90
13310;DHT22;6723;48.256;16.402;2023-02-03T17:38:09;6.90;99.90
13310;DHT22;6723;48.256;16.402;2023-02-03T17:40:38;6.90;99.90
13310;DHT22;6723;48.256;16.402;2023-02-03T17:43:04;6.90;99.90
13310;DHT22;6723;48.256;16.402;2023-02-03T17:45:30;6.90;99.90
13310;DHT22;6723;48.256;16.402;2023-02-03T17:47:56;6.90;99.90
13310;DHT22;6723;48.256;16.402;2023-02-03T17:50:24;6.90;99.90
13310;DHT22;6723;48.256;16.402;2023-02-03T17:52:50;6.90;99.90
13310;DHT22;6723;48.256;16.402;2023-02-03T17:55:17;6.90;99.90
13310;DHT22;6723;48.256;16.402;2023-02-03T17:57:43;6.70;99.90
13310;DHT22;6723;48.256;16.402;2023-02-03T18:00:10;6.60;99.90
13310;DHT22;6723;48.256;16.402;2023-02-03T18:02:35;6.40;99.90
13310;DHT22;6723;48.256;16.402;2023-02-03T18:05:01;6.30;99.90
13310;DHT22;6723;48.256;16.402;2023-02-03T18:07:27;6.20;99.90
13310;DHT22;6723;48.256;16.402;2023-02-03T18:09:53;6.10;99.90
13310;DHT22;6723;48.256;16.402;2023-02-03T18:12:19;6.10;99.90
13310;DHT22;6723;48.256;16.402;2023-02-03T18:14:44;6.10;99.90
13310;DHT22;6723;48.256;16.402;2023-02-03T18:17:10;6.10;99.90
13310;DHT22;6723;48.256;16.402;2023-02-03T18:19:36;6.10;99.90
13310;DHT22;6723;48.256;16.402;2023-02-03T18:22:02;6.10;99.90
13310;DHT22;6723;48.256;16.402;2023-02-03T18:24:27;6.20;99.90
13310;DHT22;6723;48.256;16.402;2023-02-03T18:26:54;6.10;99.90
13310;DHT22;6723;48.256;16.402;2023-02-03T18:29:21;6.20;99.90
13310;DHT22;6723;48.256;16.402;2023-02-03T18:31:48;6.40;99.90
13310;DHT22;6723;48.256;16.402;2023-02-03T18:34:15;6.50;99.90
13310;DHT22;6723;48.256;16.402;2023-02-03T18:36:41;6.60;99.90
13310;DHT22;6723;48.256;16.402;2023-02-03T18:39:07;6.60;99.90
13310;DHT22;6723;48.256;16.402;2023-02-03T18:41:41;6.60;99.90
13310;DHT22;6723;48.256;16.402;2023-02-03T18:44:07;6.60;99.90
13310;DHT22;6723;48.256;16.402;2023-02-03T18:46:33;6.60;99.90
13310;DHT22;6723;48.256;16.402;2023-02-03T18:48:59;6.60;99.90
13310;DHT22;6723;48.256;16.402;2023-02-03T18:51:26;6.60;99.90
13310;DHT22;6723;48.256;16.402;2023-02-03T18:53:56;6.60;99.90
13310;DHT22;6723;48.256;16.402;2023-02-03T18:56:25;6.60;99.90